sensor_id;sensor_type;location;lat;lon;timestamp;temperature;humidity
45096;DHT22;30858;51.108;8.068;2022-07-30T00:01:22;17.10;99.90
45096;DHT22;30858;51.108;8.068;2022-07-30T00:03:47;17.10;99.90
45096;DHT22;30858;51.108;8.068;2022-07-30T00:06:13;17.10;99.90
45096;DHT22;30858;51.108;8.068;2022-07-30T00:08:38;17.00;99.90
45096;DHT22;30858;51.108;8.068;2022-07-30T00:11:04;17.00;99.90
45096;DHT22;30858;51.108;8.068;2022-07-30T00:13:29;16.90;99.90
45096;DHT22;30858;51.108;8.068;2022-07-30T00:15:55;16.90;99.90
45096;DHT22;30858;51.108;8.068;2022-07-30T00:18:20;16.90;99.90
45096;DHT22;30858;51.108;8.068;2022-07-30T00:20:46;16.80;99.90
45096;DHT22;30858;51.108;8.068;2022-07-30T00:23:11;16.80;99.90
45096;DHT22;30858;51.108;8.068;2022-07-30T00:25:37;16.80;99.90
45096;DHT22;30858;51.108;8.068;2022-07-30T00:28:03;16.80;99.90
45096;DHT22;30858;51.108;8.068;2022-07-30T00:30:29;16.90;99.90
45096;DHT22;30858;51.108;8.068;2022-07-30T00:32:54;16.80;99.90
45096;DHT22;30858;51.108;8.068;2022-07-30T00:35:20;16.70;99.90
45096;DHT22;30858;51.108;8.068;2022-07-30T00:37:45;16.70;99.90
45096;DHT22;30858;51.108;8.068;2022-07-30T00:40:11;16.70;99.90
45096;DHT22;30858;51.108;8.068;2022-07-30T00:42:44;16.70;99.90
45096;DHT22;30858;51.108;8.068;2022-07-30T00:45:11;16.60;99.90
45096;DHT22;30858;51.108;8.068;2022-07-30T00:47:37;16.60;99.90
45096;DHT22;30858;51.108;8.068;2022-07-30T00:50:05;16.50;99.90
45096;DHT22;30858;51.108;8.068;2022-07-30T00:52:32;16.50;99.90
45096;DHT22;30858;51.108;8.068;2022-07-30T00:54:59;16.50;99.90
45096;DHT22;30858;51.108;8.068;2022-07-30T00:57:26;16.50;99.90
45096;DHT22;30858;51.108;8.068;2022-07-30T00:59:52;16.50;99.90
45096;DHT22;30858;51.108;8.068;2022-07-30T01:02:18;16.40;99.90
45096;DHT22;30858;51.108;8.068;2022-07-30T01:04:43;16.40;99.90
45096;DHT22;30858;51.108;8.068;2022-07-30T01:07:09;16.40;99.90
45096;DHT22;30858;51.108;8.068;2022-07-30T01:09:35;16.30;99.90
45096;DHT22;30858;51.108;8.068;2022-07-30T01:12:01;16.30;99.90
45096;DHT22;30858;51.108;8.068;2022-07-30T01:14:27;16.20;99.90
45096;DHT22;30858;51.108;8.068;2022-07-30T01:16:53;16.20;99.90
45096;DHT22;30858;51.108;8.068;2022-07-30T01:19:21;16.20;99.90
45096;DHT22;30858;51.108;8.068;2022-07-30T01:27:24;16.10;99.90
45096;DHT22;30858;51.108;8.068;2022-07-30T01:29:51;16.00;99.90
45096;DHT22;30858;51.108;8.068;2022-07-30T01:32:21;16.00;99.90
45096;DHT22;30858;51.108;8.068;2022-07-30T01:34:48;15.90;99.90
45096;DHT22;30858;51.108;8.068;2022-07-30T01:37:15;15.90;99.90
45096;DHT22;30858;51.108;8.068;2022-07-30T01:39:41;15.90;99.90
45096;DHT22;30858;51.108;8.068;2022-07-30T01:42:07;15.80;99.90
45096;DHT22;30858;51.108;8.068;2022-07-30T01:44:34;15.70;99.90
45096;DHT22;30858;51.108;8.068;2022-07-30T01:47:00;15.60;99.90
45096;DHT22;30858;51.108;8.068;2022-07-30T01:49:28;15.60;99.90
45096;DHT22;30858;51.108;8.068;2022-07-30T01:51:55;15.50;99.90
45096;DHT22;30858;51.108;8.068;2022-07-30T01:54:23;15.40;99.90
45096;DHT22;30858;51.108;8.068;2022-07-30T01:56:51;15.30;99.90
45096;DHT22;30858;51.108;8.068;2022-07-30T01:59:19;15.30;99.90
45096;DHT22;30858;51.108;8.068;2022-07-30T02:01:47;15.30;99.90
45096;DHT22;30858;51.108;8.068;2022-07-30T02:04:13;15.20;99.90
45096;DHT22;30858;51.108;8.068;2022-07-30T02:06:46;15.20;99.90
45096;DHT22;30858;51.108;8.068;2022-07-30T02:09:14;15.10;99.90
45096;DHT22;30858;51.108;8.068;2022-07-30T02:11:44;15.10;99.90
45096;DHT22;30858;51.108;8.068;2022-07-30T02:14:40;15.00;99.90
45096;DHT22;30858;51.108;8.068;2022-07-30T02:17:12;15.00;99.90
45096;DHT22;30858;51.108;8.068;2022-07-30T02:19:41;15.00;99.90
45096;DHT22;30858;51.108;8.068;2022-07-30T02:22:11;14.90;99.90
45096;DHT22;30858;51.108;8.068;2022-07-30T02:24:40;14.80;99.90
45096;DHT22;30858;51.108;8.068;2022-07-30T02:27:11;14.80;99.90
45096;DHT22;30858;51.108;8.068;2022-07-30T02:29:39;14.70;99.90
45096;DHT22;30858;51.108;8.068;2022-07-30T02:32:10;14.70;99.90
45096;DHT22;30858;51.108;8.068;2022-07-30T02:34:39;14.60;99.90
45096;DHT22;30858;51.108;8.068;2022-07-30T02:37:08;14.60;99.90
45096;DHT22;30858;51.108;8.068;2022-07-30T02:39:36;14.60;99.90
45096;DHT22;30858;51.108;8.068;2022-07-30T02:42:02;14.60;99.90
45096;DHT22;30858;51.108;8.068;2022-07-30T02:44:29;14.50;99.90
45096;DHT22;30858;51.108;8.068;2022-07-30T02:46:56;14.50;99.90
45096;DHT22;30858;51.108;8.068;2022-07-30T02:49:23;14.40;99.90
45096;DHT22;30858;51.108;8.068;2022-07-30T02:51:49;14.30;99.90
45096;DHT22;30858;51.108;8.068;2022-07-30T02:54:17;14.30;99.90
45096;DHT22;30858;51.108;8.068;2022-07-30T02:56:45;14.20;99.90
45096;DHT22;30858;51.108;8.068;2022-07-30T02:59:12;14.20;99.90
45096;DHT22;30858;51.108;8.068;2022-07-30T03:01:39;14.20;99.90
45096;DHT22;30858;51.108;8.068;2022-07-30T03:04:06;14.10;99.90
45096;DHT22;30858;51.108;8.068;2022-07-30T03:06:34;14.10;99.90
45096;DHT22;30858;51.108;8.068;2022-07-30T03:09:02;14.00;99.90
45096;DHT22;30858;51.108;8.068;2022-07-30T03:11:28;14.00;99.90
45096;DHT22;30858;51.108;8.068;2022-07-30T03:13:55;14.00;99.90
45096;DHT22;30858;51.108;8.068;2022-07-30T03:16:22;13.90;99.90
45096;DHT22;30858;51.108;8.068;2022-07-30T03:18:49;13.90;99.90
45096;DHT22;30858;51.108;8.068;2022-07-30T03:21:19;13.80;99.90
45096;DHT22;30858;51.108;8.068;2022-07-30T03:23:46;13.80;99.90
45096;DHT22;30858;51.108;8.068;2022-07-30T03:26:15;13.80;99.90
45096;DHT22;30858;51.108;8.068;2022-07-30T03:28:45;13.80;99.90
45096;DHT22;30858;51.108;8.068;2022-07-30T03:31:13;13.70;99.90
45096;DHT22;30858;51.108;8.068;2022-07-30T03:33:39;13.70;99.90
45096;DHT22;30858;51.108;8.068;2022-07-30T03:36:07;13.70;99.90
45096;DHT22;30858;51.108;8.068;2022-07-30T03:38:35;13.60;99.90
45096;DHT22;30858;51.108;8.068;2022-07-30T03:41:02;13.60;99.90
45096;DHT22;30858;51.108;8.068;2022-07-30T03:43:28;13.50;99.90
45096;DHT22;30858;51.108;8.068;2022-07-30T03:45:55;13.50;99.90
45096;DHT22;30858;51.108;8.068;2022-07-30T03:48:22;13.50;99.90
45096;DHT22;30858;51.108;8.068;2022-07-30T03:50:48;13.50;99.90
45096;DHT22;30858;51.108;8.068;2022-07-30T03:53:15;13.40;99.90
45096;DHT22;30858;51.108;8.068;2022-07-30T03:55:41;13.40;99.90
45096;DHT22;30858;51.108;8.068;2022-07-30T03:58:07;13.40;99.90
45096;DHT22;30858;51.108;8.068;2022-07-30T04:00:34;13.40;99.90
45096;DHT22;30858;51.108;8.068;2022-07-30T04:02:59;13.30;99.90
45096;DHT22;30858;51.108;8.068;2022-07-30T04:05:25;13.30;99.90
45096;DHT22;30858;51.108;8.068;2022-07-30T04:07:51;13.20;99.90
45096;DHT22;30858;51.108;8.068;2022-07-30T04:10:16;13.20;99.90
45096;DHT22;30858;51.108;8.068;2022-07-30T04:12:42;13.20;99.90
45096;DHT22;30858;51.108;8.068;2022-07-30T04:15:08;13.20;99.90
45096;DHT22;30858;51.108;8.068;2022-07-30T04:17:39;13.20;99.90
45096;DHT22;30858;51.108;8.068;2022-07-30T04:20:09;13.20;99.90
45096;DHT22;30858;51.108;8.068;2022-07-30T04:22:37;13.20;99.90
45096;DHT22;30858;51.108;8.068;2022-07-30T04:25:05;13.20;99.90
45096;DHT22;30858;51.108;8.068;2022-07-30T04:27:31;13.10;99.90
45096;DHT22;30858;51.108;8.068;2022-07-30T04:29:58;13.10;99.90
45096;DHT22;30858;51.108;8.068;2022-07-30T04:32:24;13.10;99.90
45096;DHT22;30858;51.108;8.068;2022-07-30T04:34:52;13.10;99.90
45096;DHT22;30858;51.108;8.068;2022-07-30T04:37:20;13.10;99.90
45096;DHT22;30858;51.108;8.068;2022-07-30T04:39:46;13.10;99.90
45096;DHT22;30858;51.108;8.068;2022-07-30T04:42:15;13.10;99.90
45096;DHT22;30858;51.108;8.068;2022-07-30T04:44:41;13.10;99.90
45096;DHT22;30858;51.108;8.068;2022-07-30T04:47:07;13.00;99.90
45096;DHT22;30858;51.108;8.068;2022-07-30T04:49:33;13.10;99.90
45096;DHT22;30858;51.108;8.068;2022-07-30T04:52:01;13.10;99.90
45096;DHT22;30858;51.108;8.068;2022-07-30T04:54:41;13.10;99.90
45096;DHT22;30858;51.108;8.068;2022-07-30T04:57:09;13.10;99.90
45096;DHT22;30858;51.108;8.068;2022-07-30T04:59:36;13.10;99.90
45096;DHT22;30858;51.108;8.068;2022-07-30T05:02:02;13.10;99.90
45096;DHT22;30858;51.108;8.068;2022-07-30T05:04:30;13.10;99.90
45096;DHT22;30858;51.108;8.068;2022-07-30T05:06:58;13.10;99.90
45096;DHT22;30858;51.108;8.068;2022-07-30T05:09:24;13.20;99.90
45096;DHT22;30858;51.108;8.068;2022-07-30T05:11:51;13.20;99.90
45096;DHT22;30858;51.108;8.068;2022-07-30T05:14:18;13.20;99.90
45096;DHT22;30858;51.108;8.068;2022-07-30T05:16:43;13.30;99.90
45096;DHT22;30858;51.108;8.068;2022-07-30T05:19:09;13.30;99.90
45096;DHT22;30858;51.108;8.068;2022-07-30T05:21:34;13.40;99.90
45096;DHT22;30858;51.108;8.068;2022-07-30T05:24:00;13.50;99.90
45096;DHT22;30858;51.108;8.068;2022-07-30T05:26:25;13.50;99.90
45096;DHT22;30858;51.108;8.068;2022-07-30T05:28:51;13.70;99.90
45096;DHT22;30858;51.108;8.068;2022-07-30T05:31:16;13.70;99.90
45096;DHT22;30858;51.108;8.068;2022-07-30T05:33:42;13.80;99.90
45096;DHT22;30858;51.108;8.068;2022-07-30T05:36:08;13.90;99.90
45096;DHT22;30858;51.108;8.068;2022-07-30T05:38:34;14.10;99.90
45096;DHT22;30858;51.108;8.068;2022-07-30T05:40:59;14.10;99.90
45096;DHT22;30858;51.108;8.068;2022-07-30T05:43:25;14.10;99.90
45096;DHT22;30858;51.108;8.068;2022-07-30T05:45:50;14.30;99.90
45096;DHT22;30858;51.108;8.068;2022-07-30T05:48:16;14.40;99.90
45096;DHT22;30858;51.108;8.068;2022-07-30T05:50:42;14.50;99.90
45096;DHT22;30858;51.108;8.068;2022-07-30T05:53:08;14.60;99.90
45096;DHT22;30858;51.108;8.068;2022-07-30T05:55:33;14.70;99.90
45096;DHT22;30858;51.108;8.068;2022-07-30T06:00:25;14.90;99.90
45096;DHT22;30858;51.108;8.068;2022-07-30T06:02:50;15.20;99.90
45096;DHT22;30858;51.108;8.068;2022-07-30T06:05:16;15.40;99.90
45096;DHT22;30858;51.108;8.068;2022-07-30T06:07:41;15.60;99.90
45096;DHT22;30858;51.108;8.068;2022-07-30T06:10:07;15.60;99.90
45096;DHT22;30858;51.108;8.068;2022-07-30T06:12:33;15.60;99.90
45096;DHT22;30858;51.108;8.068;2022-07-30T06:14:58;15.50;99.90
45096;DHT22;30858;51.108;8.068;2022-07-30T06:17:24;15.60;99.90
45096;DHT22;30858;51.108;8.068;2022-07-30T06:19:49;15.60;99.90
45096;DHT22;30858;51.108;8.068;2022-07-30T06:22:15;15.60;99.90
45096;DHT22;30858;51.108;8.068;2022-07-30T06:24:41;15.60;99.90
45096;DHT22;30858;51.108;8.068;2022-07-30T06:27:07;15.70;99.90
45096;DHT22;30858;51.108;8.068;2022-07-30T06:29:33;15.80;99.90
45096;DHT22;30858;51.108;8.068;2022-07-30T06:31:58;16.00;99.90
45096;DHT22;30858;51.108;8.068;2022-07-30T06:34:24;16.20;99.90
45096;DHT22;30858;51.108;8.068;2022-07-30T06:36:49;16.50;99.90
45096;DHT22;30858;51.108;8.068;2022-07-30T06:39:15;16.80;99.90
45096;DHT22;30858;51.108;8.068;2022-07-30T06:41:41;17.00;99.90
45096;DHT22;30858;51.108;8.068;2022-07-30T06:44:06;17.10;99.90
45096;DHT22;30858;51.108;8.068;2022-07-30T06:46:32;17.30;99.90
45096;DHT22;30858;51.108;8.068;2022-07-30T06:48:58;17.50;99.90
45096;DHT22;30858;51.108;8.068;2022-07-30T06:51:23;17.70;99.90
45096;DHT22;30858;51.108;8.068;2022-07-30T06:53:49;17.80;99.90
45096;DHT22;30858;51.108;8.068;2022-07-30T06:56:15;17.90;99.90
45096;DHT22;30858;51.108;8.068;2022-07-30T06:58:40;18.10;99.90
45096;DHT22;30858;51.108;8.068;2022-07-30T07:01:06;18.30;99.90
45096;DHT22;30858;51.108;8.068;2022-07-30T07:03:31;18.70;99.90
45096;DHT22;30858;51.108;8.068;2022-07-30T07:05:57;18.90;99.90
45096;DHT22;30858;51.108;8.068;2022-07-30T07:08:22;19.20;99.90
45096;DHT22;30858;51.108;8.068;2022-07-30T07:10:48;19.40;99.90
45096;DHT22;30858;51.108;8.068;2022-07-30T07:13:14;19.60;99.90
45096;DHT22;30858;51.108;8.068;2022-07-30T07:15:39;19.80;99.90
45096;DHT22;30858;51.108;8.068;2022-07-30T07:18:05;20.10;99.90
45096;DHT22;30858;51.108;8.068;2022-07-30T07:20:32;20.30;99.90
45096;DHT22;30858;51.108;8.068;2022-07-30T07:22:57;20.30;99.90
45096;DHT22;30858;51.108;8.068;2022-07-30T07:25:23;20.40;99.90
45096;DHT22;30858;51.108;8.068;2022-07-30T07:27:48;20.60;99.90
45096;DHT22;30858;51.108;8.068;2022-07-30T07:30:14;20.90;99.90
45096;DHT22;30858;51.108;8.068;2022-07-30T07:32:40;20.80;99.90
45096;DHT22;30858;51.108;8.068;2022-07-30T07:35:05;21.10;99.90
45096;DHT22;30858;51.108;8.068;2022-07-30T07:37:31;21.40;99.90
45096;DHT22;30858;51.108;8.068;2022-07-30T07:39:57;21.30;99.90
45096;DHT22;30858;51.108;8.068;2022-07-30T07:42:23;21.20;99.90
45096;DHT22;30858;51.108;8.068;2022-07-30T07:44:48;21.30;99.90
45096;DHT22;30858;51.108;8.068;2022-07-30T07:47:14;21.40;99.90
45096;DHT22;30858;51.108;8.068;2022-07-30T07:49:40;21.30;99.90
45096;DHT22;30858;51.108;8.068;2022-07-30T07:52:05;21.40;99.90
45096;DHT22;30858;51.108;8.068;2022-07-30T07:54:31;21.50;99.90
45096;DHT22;30858;51.108;8.068;2022-07-30T07:56:57;21.60;99.90
45096;DHT22;30858;51.108;8.068;2022-07-30T07:59:23;21.80;99.90
45096;DHT22;30858;51.108;8.068;2022-07-30T08:01:49;21.80;99.90
45096;DHT22;30858;51.108;8.068;2022-07-30T08:04:16;21.90;99.90
45096;DHT22;30858;51.108;8.068;2022-07-30T08:06:41;21.80;99.90
45096;DHT22;30858;51.108;8.068;2022-07-30T08:09:07;22.10;99.90
45096;DHT22;30858;51.108;8.068;2022-07-30T08:11:32;22.20;99.90
45096;DHT22;30858;51.108;8.068;2022-07-30T08:13:58;22.20;99.90
45096;DHT22;30858;51.108;8.068;2022-07-30T08:16:23;22.20;99.90
45096;DHT22;30858;51.108;8.068;2022-07-30T08:18:49;22.30;99.90
45096;DHT22;30858;51.108;8.068;2022-07-30T08:21:14;22.50;99.90
45096;DHT22;30858;51.108;8.068;2022-07-30T08:23:40;22.60;99.90
45096;DHT22;30858;51.108;8.068;2022-07-30T08:26:06;22.70;99.90
45096;DHT22;30858;51.108;8.068;2022-07-30T08:28:32;22.80;99.90
45096;DHT22;30858;51.108;8.068;2022-07-30T08:30:57;22.90;99.90
45096;DHT22;30858;51.108;8.068;2022-07-30T08:33:23;23.10;99.90
45096;DHT22;30858;51.108;8.068;2022-07-30T08:35:48;23.40;99.90
45096;DHT22;30858;51.108;8.068;2022-07-30T08:38:14;23.60;99.90
45096;DHT22;30858;51.108;8.068;2022-07-30T08:40:40;23.70;99.90
45096;DHT22;30858;51.108;8.068;2022-07-30T08:43:06;23.80;99.90
45096;DHT22;30858;51.108;8.068;2022-07-30T08:45:33;23.90;99.90
45096;DHT22;30858;51.108;8.068;2022-07-30T08:48:00;23.40;99.90
45096;DHT22;30858;51.108;8.068;2022-07-30T08:50:27;23.10;99.90
45096;DHT22;30858;51.108;8.068;2022-07-30T08:52:54;23.50;99.90
45096;DHT22;30858;51.108;8.068;2022-07-30T08:55:23;24.00;99.90
45096;DHT22;30858;51.108;8.068;2022-07-30T08:57:49;24.20;99.90
45096;DHT22;30858;51.108;8.068;2022-07-30T09:00:16;24.30;99.90
45096;DHT22;30858;51.108;8.068;2022-07-30T09:02:42;24.40;99.90
45096;DHT22;30858;51.108;8.068;2022-07-30T09:05:09;24.80;99.90
45096;DHT22;30858;51.108;8.068;2022-07-30T09:07:36;24.40;99.90
45096;DHT22;30858;51.108;8.068;2022-07-30T09:10:03;24.30;99.90
45096;DHT22;30858;51.108;8.068;2022-07-30T09:12:44;24.70;99.90
45096;DHT22;30858;51.108;8.068;2022-07-30T09:15:17;24.70;99.90
45096;DHT22;30858;51.108;8.068;2022-07-30T09:20:14;24.80;99.90
45096;DHT22;30858;51.108;8.068;2022-07-30T09:22:48;25.00;99.90
45096;DHT22;30858;51.108;8.068;2022-07-30T09:25:14;25.10;99.90
45096;DHT22;30858;51.108;8.068;2022-07-30T09:27:48;25.00;99.90
45096;DHT22;30858;51.108;8.068;2022-07-30T09:30:15;25.10;99.90
45096;DHT22;30858;51.108;8.068;2022-07-30T09:32:52;25.50;99.90
45096;DHT22;30858;51.108;8.068;2022-07-30T09:35:19;25.90;99.90
45096;DHT22;30858;51.108;8.068;2022-07-30T09:37:45;26.30;99.90
45096;DHT22;30858;51.108;8.068;2022-07-30T09:40:15;26.20;99.90
45096;DHT22;30858;51.108;8.068;2022-07-30T09:42:41;25.50;99.90
45096;DHT22;30858;51.108;8.068;2022-07-30T09:45:11;24.80;99.90
45096;DHT22;30858;51.108;8.068;2022-07-30T09:47:42;24.70;99.90
45096;DHT22;30858;51.108;8.068;2022-07-30T09:50:17;24.90;99.90
45096;DHT22;30858;51.108;8.068;2022-07-30T09:52:49;25.40;99.90
45096;DHT22;30858;51.108;8.068;2022-07-30T09:55:31;25.70;99.90
45096;DHT22;30858;51.108;8.068;2022-07-30T09:58:02;26.00;99.90
45096;DHT22;30858;51.108;8.068;2022-07-30T10:00:30;26.20;99.90
45096;DHT22;30858;51.108;8.068;2022-07-30T10:02:56;26.30;99.90
45096;DHT22;30858;51.108;8.068;2022-07-30T10:05:22;25.90;99.90
45096;DHT22;30858;51.108;8.068;2022-07-30T10:07:56;25.50;99.90
45096;DHT22;30858;51.108;8.068;2022-07-30T10:10:27;25.50;99.90
45096;DHT22;30858;51.108;8.068;2022-07-30T10:12:59;25.00;99.90
45096;DHT22;30858;51.108;8.068;2022-07-30T10:15:29;25.00;99.90
45096;DHT22;30858;51.108;8.068;2022-07-30T10:17:55;25.00;99.90
45096;DHT22;30858;51.108;8.068;2022-07-30T10:20:20;25.00;99.90
45096;DHT22;30858;51.108;8.068;2022-07-30T10:22:47;25.00;99.90
45096;DHT22;30858;51.108;8.068;2022-07-30T10:25:21;25.40;99.90
45096;DHT22;30858;51.108;8.068;2022-07-30T10:27:48;25.70;99.90
45096;DHT22;30858;51.108;8.068;2022-07-30T10:30:14;26.20;99.90
45096;DHT22;30858;51.108;8.068;2022-07-30T10:32:40;26.10;99.90
45096;DHT22;30858;51.108;8.068;2022-07-30T10:35:07;26.60;99.90
45096;DHT22;30858;51.108;8.068;2022-07-30T10:37:36;26.80;99.90
45096;DHT22;30858;51.108;8.068;2022-07-30T10:48:23;26.00;99.90
45096;DHT22;30858;51.108;8.068;2022-07-30T10:50:54;26.30;99.90
45096;DHT22;30858;51.108;8.068;2022-07-30T10:53:37;26.60;99.90
45096;DHT22;30858;51.108;8.068;2022-07-30T10:56:11;26.60;99.90
45096;DHT22;30858;51.108;8.068;2022-07-30T11:01:21;26.50;99.90
45096;DHT22;30858;51.108;8.068;2022-07-30T11:06:45;25.50;99.90
45096;DHT22;30858;51.108;8.068;2022-07-30T11:09:39;25.20;99.90
45096;DHT22;30858;51.108;8.068;2022-07-30T11:12:06;24.80;99.90
45096;DHT22;30858;51.108;8.068;2022-07-30T11:15:01;24.60;99.90
45096;DHT22;30858;51.108;8.068;2022-07-30T11:20:25;24.70;99.90
45096;DHT22;30858;51.108;8.068;2022-07-30T11:22:51;24.20;99.90
45096;DHT22;30858;51.108;8.068;2022-07-30T11:27:47;24.80;99.90
45096;DHT22;30858;51.108;8.068;2022-07-30T11:32:41;26.40;99.90
45096;DHT22;30858;51.108;8.068;2022-07-30T11:35:10;27.40;99.90
45096;DHT22;30858;51.108;8.068;2022-07-30T11:40:23;27.00;99.90
45096;DHT22;30858;51.108;8.068;2022-07-30T11:42:51;26.60;99.20
45096;DHT22;30858;51.108;8.068;2022-07-30T11:47:51;26.90;99.60
45096;DHT22;30858;51.108;8.068;2022-07-30T11:52:50;26.70;99.40
45096;DHT22;30858;51.108;8.068;2022-07-30T11:55:52;26.20;99.90
45096;DHT22;30858;51.108;8.068;2022-07-30T11:58:30;26.20;99.90
45096;DHT22;30858;51.108;8.068;2022-07-30T12:01:01;25.90;99.90
45096;DHT22;30858;51.108;8.068;2022-07-30T12:03:29;26.50;99.90
45096;DHT22;30858;51.108;8.068;2022-07-30T12:06:09;26.70;99.10
45096;DHT22;30858;51.108;8.068;2022-07-30T12:08:42;27.40;99.30
45096;DHT22;30858;51.108;8.068;2022-07-30T12:11:08;28.10;97.40
45096;DHT22;30858;51.108;8.068;2022-07-30T12:13:34;28.50;96.60
45096;DHT22;30858;51.108;8.068;2022-07-30T12:16:07;28.90;94.90
45096;DHT22;30858;51.108;8.068;2022-07-30T12:18:33;29.90;95.90
45096;DHT22;30858;51.108;8.068;2022-07-30T12:21:05;29.90;94.00
45096;DHT22;30858;51.108;8.068;2022-07-30T12:23:40;29.80;93.80
45096;DHT22;30858;51.108;8.068;2022-07-30T12:26:20;29.60;93.70
45096;DHT22;30858;51.108;8.068;2022-07-30T12:28:46;30.00;93.40
45096;DHT22;30858;51.108;8.068;2022-07-30T12:31:14;30.20;92.60
45096;DHT22;30858;51.108;8.068;2022-07-30T12:33:40;30.20;91.50
45096;DHT22;30858;51.108;8.068;2022-07-30T12:36:06;29.80;91.50
45096;DHT22;30858;51.108;8.068;2022-07-30T12:38:42;29.60;91.80
45096;DHT22;30858;51.108;8.068;2022-07-30T12:41:09;27.50;91.90
45096;DHT22;30858;51.108;8.068;2022-07-30T12:46:23;28.10;92.10
45096;DHT22;30858;51.108;8.068;2022-07-30T12:49:01;28.10;92.30
45096;DHT22;30858;51.108;8.068;2022-07-30T12:51:29;28.00;91.50
45096;DHT22;30858;51.108;8.068;2022-07-30T12:53:57;28.30;92.10
45096;DHT22;30858;51.108;8.068;2022-07-30T12:56:25;27.80;91.70
45096;DHT22;30858;51.108;8.068;2022-07-30T12:58:52;27.80;92.20
45096;DHT22;30858;51.108;8.068;2022-07-30T13:01:18;27.60;91.60
45096;DHT22;30858;51.108;8.068;2022-07-30T13:03:44;27.40;91.70
45096;DHT22;30858;51.108;8.068;2022-07-30T13:06:17;27.20;93.20
45096;DHT22;30858;51.108;8.068;2022-07-30T13:08:45;28.20;91.80
45096;DHT22;30858;51.108;8.068;2022-07-30T13:11:11;28.70;91.00
45096;DHT22;30858;51.108;8.068;2022-07-30T13:13:37;29.00;90.60
45096;DHT22;30858;51.108;8.068;2022-07-30T13:16:04;28.80;90.20
45096;DHT22;30858;51.108;8.068;2022-07-30T13:18:32;28.40;91.40
45096;DHT22;30858;51.108;8.068;2022-07-30T13:20:59;28.70;91.90
45096;DHT22;30858;51.108;8.068;2022-07-30T13:23:26;29.20;91.50
45096;DHT22;30858;51.108;8.068;2022-07-30T13:25:52;28.60;91.10
45096;DHT22;30858;51.108;8.068;2022-07-30T13:28:18;27.10;91.40
45096;DHT22;30858;51.108;8.068;2022-07-30T13:30:44;26.70;92.50
45096;DHT22;30858;51.108;8.068;2022-07-30T13:33:10;26.40;91.60
45096;DHT22;30858;51.108;8.068;2022-07-30T13:35:36;27.30;92.60
45096;DHT22;30858;51.108;8.068;2022-07-30T13:38:02;27.90;92.40
45096;DHT22;30858;51.108;8.068;2022-07-30T13:40:28;27.20;91.80
45096;DHT22;30858;51.108;8.068;2022-07-30T13:42:59;27.20;92.30
45096;DHT22;30858;51.108;8.068;2022-07-30T13:45:25;28.30;90.80
45096;DHT22;30858;51.108;8.068;2022-07-30T13:47:51;28.80;89.60
45096;DHT22;30858;51.108;8.068;2022-07-30T13:50:17;29.00;90.60
45096;DHT22;30858;51.108;8.068;2022-07-30T13:52:43;29.00;86.50
45096;DHT22;30858;51.108;8.068;2022-07-30T13:55:08;29.00;86.40
45096;DHT22;30858;51.108;8.068;2022-07-30T13:57:34;29.00;88.80
45096;DHT22;30858;51.108;8.068;2022-07-30T14:00:00;28.70;87.90
45096;DHT22;30858;51.108;8.068;2022-07-30T14:02:25;28.20;88.40
45096;DHT22;30858;51.108;8.068;2022-07-30T14:04:52;27.70;89.10
45096;DHT22;30858;51.108;8.068;2022-07-30T14:07:17;27.50;89.80
45096;DHT22;30858;51.108;8.068;2022-07-30T14:09:43;27.10;90.90
45096;DHT22;30858;51.108;8.068;2022-07-30T14:12:08;26.80;91.50
45096;DHT22;30858;51.108;8.068;2022-07-30T14:14:34;27.80;90.70
45096;DHT22;30858;51.108;8.068;2022-07-30T14:16:59;28.20;90.00
45096;DHT22;30858;51.108;8.068;2022-07-30T14:19:25;27.70;89.00
45096;DHT22;30858;51.108;8.068;2022-07-30T14:21:52;26.90;90.80
45096;DHT22;30858;51.108;8.068;2022-07-30T14:24:18;27.00;90.30
45096;DHT22;30858;51.108;8.068;2022-07-30T14:26:44;26.90;91.10
45096;DHT22;30858;51.108;8.068;2022-07-30T14:29:10;28.00;88.70
45096;DHT22;30858;51.108;8.068;2022-07-30T14:31:36;28.60;89.30
45096;DHT22;30858;51.108;8.068;2022-07-30T14:34:01;27.80;86.90
45096;DHT22;30858;51.108;8.068;2022-07-30T14:36:27;28.40;88.10
45096;DHT22;30858;51.108;8.068;2022-07-30T14:38:55;28.90;85.00
45096;DHT22;30858;51.108;8.068;2022-07-30T14:41:22;29.10;83.30
45096;DHT22;30858;51.108;8.068;2022-07-30T14:43:47;28.70;85.70
45096;DHT22;30858;51.108;8.068;2022-07-30T14:46:13;28.00;84.80
45096;DHT22;30858;51.108;8.068;2022-07-30T14:48:38;27.90;85.90
45096;DHT22;30858;51.108;8.068;2022-07-30T14:51:05;27.90;85.90
45096;DHT22;30858;51.108;8.068;2022-07-30T14:53:31;28.00;85.30
45096;DHT22;30858;51.108;8.068;2022-07-30T14:55:57;27.90;84.70
45096;DHT22;30858;51.108;8.068;2022-07-30T14:58:23;27.30;89.10
45096;DHT22;30858;51.108;8.068;2022-07-30T15:00:48;28.10;85.60
45096;DHT22;30858;51.108;8.068;2022-07-30T15:03:14;28.60;83.00
45096;DHT22;30858;51.108;8.068;2022-07-30T15:05:40;28.50;82.20
45096;DHT22;30858;51.108;8.068;2022-07-30T15:08:05;28.90;83.40
45096;DHT22;30858;51.108;8.068;2022-07-30T15:10:31;28.40;82.10
45096;DHT22;30858;51.108;8.068;2022-07-30T15:12:57;27.60;84.20
45096;DHT22;30858;51.108;8.068;2022-07-30T15:15:23;27.90;83.50
45096;DHT22;30858;51.108;8.068;2022-07-30T15:17:48;28.70;82.70
45096;DHT22;30858;51.108;8.068;2022-07-30T15:20:14;28.50;80.50
45096;DHT22;30858;51.108;8.068;2022-07-30T15:22:39;28.40;81.20
45096;DHT22;30858;51.108;8.068;2022-07-30T15:25:05;29.00;80.70
45096;DHT22;30858;51.108;8.068;2022-07-30T15:27:31;29.10;79.00
45096;DHT22;30858;51.108;8.068;2022-07-30T15:29:57;29.20;80.70
45096;DHT22;30858;51.108;8.068;2022-07-30T15:32:22;29.60;77.90
45096;DHT22;30858;51.108;8.068;2022-07-30T15:34:48;29.70;76.70
45096;DHT22;30858;51.108;8.068;2022-07-30T15:37:13;29.60;77.10
45096;DHT22;30858;51.108;8.068;2022-07-30T15:39:40;28.90;77.10
45096;DHT22;30858;51.108;8.068;2022-07-30T15:42:05;29.10;75.80
45096;DHT22;30858;51.108;8.068;2022-07-30T15:44:31;28.90;74.60
45096;DHT22;30858;51.108;8.068;2022-07-30T15:46:58;28.90;74.30
45096;DHT22;30858;51.108;8.068;2022-07-30T15:49:24;28.90;75.20
45096;DHT22;30858;51.108;8.068;2022-07-30T15:51:50;29.00;73.30
45096;DHT22;30858;51.108;8.068;2022-07-30T15:54:17;29.10;72.00
45096;DHT22;30858;51.108;8.068;2022-07-30T15:56:43;29.30;72.70
45096;DHT22;30858;51.108;8.068;2022-07-30T15:59:12;29.30;69.70
45096;DHT22;30858;51.108;8.068;2022-07-30T16:01:38;29.50;68.20
45096;DHT22;30858;51.108;8.068;2022-07-30T16:04:04;29.20;69.70
45096;DHT22;30858;51.108;8.068;2022-07-30T16:06:30;29.10;69.80
45096;DHT22;30858;51.108;8.068;2022-07-30T16:08:57;28.60;69.20
45096;DHT22;30858;51.108;8.068;2022-07-30T16:11:23;28.50;69.60
45096;DHT22;30858;51.108;8.068;2022-07-30T16:13:48;29.00;69.60